sensor_id;sensor_type;location;lat;lon;timestamp;pressure;altitude;pressure_sealevel;temperature;humidity
63006;BME280;53704;52.532;6.426;2023-04-04T00:00:53;103110.06;;;0.15;100.00
63006;BME280;53704;52.532;6.426;2023-04-04T00:03:19;103096.34;;;0.33;100.00
63006;BME280;53704;52.532;6.426;2023-04-04T00:05:45;103105.03;;;0.39;100.00
63006;BME280;53704;52.532;6.426;2023-04-04T00:08:10;103098.22;;;0.28;100.00
63006;BME280;53704;52.532;6.426;2023-04-04T00:10:36;103086.97;;;0.20;100.00
63006;BME280;53704;52.532;6.426;2023-04-04T00:13:02;103096.06;;;0.11;100.00
63006;BME280;53704;52.532;6.426;2023-04-04T00:15:27;103101.84;;;-0.09;100.00
63006;BME280;53704;52.532;6.426;2023-04-04T00:17:53;103090.75;;;0.11;100.00
63006;BME280;53704;52.532;6.426;2023-04-04T00:20:18;103086.66;;;0.32;100.00
63006;BME280;53704;52.532;6.426;2023-04-04T00:22:44;103089.22;;;0.35;100.00
63006;BME280;53704;52.532;6.426;2023-04-04T00:25:09;103084.91;;;0.31;100.00
63006;BME280;53704;52.532;6.426;2023-04-04T00:27:35;103082.75;;;0.46;100.00
63006;BME280;53704;52.532;6.426;2023-04-04T00:30:00;103077.53;;;0.43;100.00
63006;BME280;53704;52.532;6.426;2023-04-04T00:32:26;103081.59;;;0.23;100.00
63006;BME280;53704;52.532;6.426;2023-04-04T00:34:52;103085.66;;;0.04;100.00
63006;BME280;53704;52.532;6.426;2023-04-04T00:37:22;103077.34;;;0.17;100.00
63006;BME280;53704;52.532;6.426;2023-04-04T00:39:47;103081.91;;;0.11;100.00
63006;BME280;53704;52.532;6.426;2023-04-04T00:42:14;103076.78;;;0.05;100.00
63006;BME280;53704;52.532;6.426;2023-04-04T00:44:39;103086.38;;;-0.26;100.00
63006;BME280;53704;52.532;6.426;2023-04-04T00:47:05;103088.47;;;-0.39;100.00
63006;BME280;53704;52.532;6.426;2023-04-04T00:49:31;103079.03;;;-0.49;100.00
63006;BME280;53704;52.532;6.426;2023-04-04T00:51:57;103077.00;;;-0.39;100.00
63006;BME280;53704;52.532;6.426;2023-04-04T00:54:23;103078.66;;;-0.35;100.00
63006;BME280;53704;52.532;6.426;2023-04-04T00:56:49;103076.75;;;-0.28;100.00
63006;BME280;53704;52.532;6.426;2023-04-04T00:59:20;103069.06;;;-0.03;100.00
63006;BME280;53704;52.532;6.426;2023-04-04T01:01:47;103080.19;;;-0.25;100.00
63006;BME280;53704;52.532;6.426;2023-04-04T01:04:12;103083.72;;;-0.26;100.00
63006;BME280;53704;52.532;6.426;2023-04-04T01:06:38;103082.56;;;-0.14;100.00
63006;BME280;53704;52.532;6.426;2023-04-04T01:09:03;103082.19;;;-0.34;100.00
63006;BME280;53704;52.532;6.426;2023-04-04T01:11:29;103084.78;;;-0.31;100.00
63006;BME280;53704;52.532;6.426;2023-04-04T01:13:55;103085.81;;;-0.39;100.00
63006;BME280;53704;52.532;6.426;2023-04-04T01:16:23;103076.59;;;-0.22;100.00
63006;BME280;53704;52.532;6.426;2023-04-04T01:18:50;103076.69;;;-0.25;100.00
63006;BME280;53704;52.532;6.426;2023-04-04T01:21:17;103080.25;;;-0.28;100.00
63006;BME280;53704;52.532;6.426;2023-04-04T01:26:22;103086.97;;;-0.49;100.00
63006;BME280;53704;52.532;6.426;2023-04-04T01:28:50;103081.94;;;-0.61;100.00
63006;BME280;53704;52.532;6.426;2023-04-04T01:31:21;103081.94;;;-0.61;100.00
63006;BME280;53704;52.532;6.426;2023-04-04T01:34:19;103085.69;;;-0.34;100.00
63006;BME280;53704;52.532;6.426;2023-04-04T01:37:13;103075.78;;;-0.26;100.00
63006;BME280;53704;52.532;6.426;2023-04-04T01:39:59;103079.63;;;-0.38;100.00
63006;BME280;53704;52.532;6.426;2023-04-04T01:42:29;103078.56;;;-0.66;100.00
63006;BME280;53704;52.532;6.426;2023-04-04T01:44:56;103074.66;;;-0.51;100.00
63006;BME280;53704;52.532;6.426;2023-04-04T01:47:22;103079.94;;;-0.51;100.00
63006;BME280;53704;52.532;6.426;2023-04-04T01:49:48;103076.16;;;-0.41;100.00
63006;BME280;53704;52.532;6.426;2023-04-04T01:52:13;103078.06;;;-0.46;100.00
63006;BME280;53704;52.532;6.426;2023-04-04T01:54:39;103068.41;;;-0.47;100.00
63006;BME280;53704;52.532;6.426;2023-04-04T01:57:04;103066.44;;;-0.77;100.00
63006;BME280;53704;52.532;6.426;2023-04-04T01:59:30;103068.19;;;-0.76;100.00
63006;BME280;53704;52.532;6.426;2023-04-04T02:01:55;103067.81;;;-0.62;100.00
63006;BME280;53704;52.532;6.426;2023-04-04T02:04:24;103072.13;;;-0.56;100.00
63006;BME280;53704;52.532;6.426;2023-04-04T02:06:49;103068.88;;;-0.31;100.00
63006;BME280;53704;52.532;6.426;2023-04-04T02:09:16;103066.63;;;-0.47;100.00
63006;BME280;53704;52.532;6.426;2023-04-04T02:11:42;103069.19;;;-0.44;100.00
63006;BME280;53704;52.532;6.426;2023-04-04T02:14:08;103067.63;;;-0.52;100.00
63006;BME280;53704;52.532;6.426;2023-04-04T02:16:33;103072.91;;;-0.52;100.00
63006;BME280;53704;52.532;6.426;2023-04-04T02:18:59;103067.50;;;-0.48;100.00
63006;BME280;53704;52.532;6.426;2023-04-04T02:21:24;103065.53;;;-0.76;100.00
63006;BME280;53704;52.532;6.426;2023-04-04T02:23:51;103073.66;;;-0.85;100.00
63006;BME280;53704;52.532;6.426;2023-04-04T02:26:17;103073.63;;;-0.83;100.00
63006;BME280;53704;52.532;6.426;2023-04-04T02:28:42;103073.44;;;-0.74;100.00
63006;BME280;53704;52.532;6.426;2023-04-04T02:31:08;103073.53;;;-0.79;100.00
63006;BME280;53704;52.532;6.426;2023-04-04T02:33:33;103085.38;;;-0.97;100.00
63006;BME280;53704;52.532;6.426;2023-04-04T02:35:59;103074.72;;;-0.94;100.00
63006;BME280;53704;52.532;6.426;2023-04-04T02:38:25;103067.34;;;-0.79;100.00
63006;BME280;53704;52.532;6.426;2023-04-04T02:40:51;103076.13;;;-0.76;100.00
63006;BME280;53704;52.532;6.426;2023-04-04T02:43:16;103064.97;;;-0.52;100.00
63006;BME280;53704;52.532;6.426;2023-04-04T02:45:41;103064.13;;;-0.53;100.00
63006;BME280;53704;52.532;6.426;2023-04-04T02:48:07;103052.44;;;-0.82;100.00
63006;BME280;53704;52.532;6.426;2023-04-04T02:50:32;103052.66;;;-0.91;100.00
63006;BME280;53704;52.532;6.426;2023-04-04T02:53:02;103047.28;;;-0.88;100.00
63006;BME280;53704;52.532;6.426;2023-04-04T02:55:27;103045.03;;;-1.05;100.00
63006;BME280;53704;52.532;6.426;2023-04-04T02:57:53;103049.41;;;-1.04;100.00
63006;BME280;53704;52.532;6.426;2023-04-04T03:00:18;103044.50;;;-1.21;100.00
63006;BME280;53704;52.532;6.426;2023-04-04T03:02:44;103044.44;;;-1.18;100.00
63006;BME280;53704;52.532;6.426;2023-04-04T03:05:10;103045.88;;;-1.04;100.00
63006;BME280;53704;52.532;6.426;2023-04-04T03:07:36;103035.94;;;-0.92;100.00
63006;BME280;53704;52.532;6.426;2023-04-04T03:10:02;103033.69;;;-1.10;100.00
63006;BME280;53704;52.532;6.426;2023-04-04T03:12:28;103037.63;;;-1.28;100.00
63006;BME280;53704;52.532;6.426;2023-04-04T03:14:53;103028.16;;;-0.99;100.00
63006;BME280;53704;52.532;6.426;2023-04-04T03:17:19;103026.22;;;-0.91;100.00
63006;BME280;53704;52.532;6.426;2023-04-04T03:19:44;103024.16;;;-1.19;100.00
63006;BME280;53704;52.532;6.426;2023-04-04T03:22:10;103021.06;;;-1.38;100.00
63006;BME280;53704;52.532;6.426;2023-04-04T03:24:35;103030.00;;;-1.43;100.00
63006;BME280;53704;52.532;6.426;2023-04-04T03:27:01;103033.13;;;-1.68;100.00
63006;BME280;53704;52.532;6.426;2023-04-04T03:29:26;103027.47;;;-1.50;100.00
63006;BME280;53704;52.532;6.426;2023-04-04T03:31:52;103028.25;;;-1.44;100.00
63006;BME280;53704;52.532;6.426;2023-04-04T03:34:17;103027.38;;;-1.45;100.00
63006;BME280;53704;52.532;6.426;2023-04-04T03:36:43;103036.31;;;-1.52;100.00
63006;BME280;53704;52.532;6.426;2023-04-04T03:39:11;103036.53;;;-1.63;100.00
63006;BME280;53704;52.532;6.426;2023-04-04T03:41:36;103033.94;;;-1.65;100.00
63006;BME280;53704;52.532;6.426;2023-04-04T03:44:06;103033.19;;;-1.71;100.00
63006;BME280;53704;52.532;6.426;2023-04-04T03:46:33;103031.19;;;-1.60;100.00
63006;BME280;53704;52.532;6.426;2023-04-04T03:48:59;103032.28;;;-1.70;100.00
63006;BME280;53704;52.532;6.426;2023-04-04T03:51:25;103027.84;;;-1.68;100.00
63006;BME280;53704;52.532;6.426;2023-04-04T03:53:53;103029.75;;;-1.75;100.00
63006;BME280;53704;52.532;6.426;2023-04-04T03:56:19;103021.72;;;-1.70;100.00
63006;BME280;53704;52.532;6.426;2023-04-04T03:58:44;103020.91;;;-1.72;100.00
63006;BME280;53704;52.532;6.426;2023-04-04T04:01:10;103023.69;;;-1.80;100.00
63006;BME280;53704;52.532;6.426;2023-04-04T04:03:35;103022.56;;;-1.68;100.00
63006;BME280;53704;52.532;6.426;2023-04-04T04:06:04;103024.84;;;-1.95;100.00
63006;BME280;53704;52.532;6.426;2023-04-04T04:08:29;103021.78;;;-1.73;100.00
63006;BME280;53704;52.532;6.426;2023-04-04T04:10:55;103027.56;;;-1.54;100.00
63006;BME280;53704;52.532;6.426;2023-04-04T04:13:20;103017.25;;;-1.24;100.00
63006;BME280;53704;52.532;6.426;2023-04-04T04:15:46;103018.91;;;-1.61;100.00
63006;BME280;53704;52.532;6.426;2023-04-04T04:18:11;103016.06;;;-1.50;100.00
63006;BME280;53704;52.532;6.426;2023-04-04T04:20:37;103020.00;;;-1.29;100.00
63006;BME280;53704;52.532;6.426;2023-04-04T04:23:02;103014.91;;;-1.38;100.00
63006;BME280;53704;52.532;6.426;2023-04-04T04:25:27;103020.84;;;-1.69;100.00
63006;BME280;53704;52.532;6.426;2023-04-04T04:27:56;103023.72;;;-1.82;100.00
63006;BME280;53704;52.532;6.426;2023-04-04T04:30:22;103021.31;;;-1.94;100.00
63006;BME280;53704;52.532;6.426;2023-04-04T04:32:50;103016.81;;;-1.90;100.00
63006;BME280;53704;52.532;6.426;2023-04-04T04:35:16;103026.56;;;-1.92;100.00
63006;BME280;53704;52.532;6.426;2023-04-04T04:37:41;103018.06;;;-2.08;100.00
63006;BME280;53704;52.532;6.426;2023-04-04T04:40:07;103013.59;;;-2.05;100.00
63006;BME280;53704;52.532;6.426;2023-04-04T04:42:33;103015.44;;;-2.10;100.00
63006;BME280;53704;52.532;6.426;2023-04-04T04:44:58;103024.94;;;-2.01;100.00
63006;BME280;53704;52.532;6.426;2023-04-04T04:47:23;103026.78;;;-2.05;100.00
63006;BME280;53704;52.532;6.426;2023-04-04T04:49:49;103025.25;;;-2.16;100.00
63006;BME280;53704;52.532;6.426;2023-04-04T04:52:14;103028.81;;;-2.21;100.00
63006;BME280;53704;52.532;6.426;2023-04-04T04:54:40;103035.03;;;-2.25;100.00
63006;BME280;53704;52.532;6.426;2023-04-04T04:57:07;103034.19;;;-2.25;100.00
63006;BME280;53704;52.532;6.426;2023-04-04T04:59:33;103028.72;;;-2.14;100.00
63006;BME280;53704;52.532;6.426;2023-04-04T05:01:58;103028.81;;;-2.19;100.00
63006;BME280;53704;52.532;6.426;2023-04-04T05:04:24;103035.59;;;-2.06;100.00
63006;BME280;53704;52.532;6.426;2023-04-04T05:06:49;103035.72;;;-2.12;100.00
63006;BME280;53704;52.532;6.426;2023-04-04T05:09:14;103037.59;;;-2.20;100.00
63006;BME280;53704;52.532;6.426;2023-04-04T05:11:40;103041.81;;;-2.08;100.00
63006;BME280;53704;52.532;6.426;2023-04-04T05:14:06;103036.56;;;-2.10;100.00
63006;BME280;53704;52.532;6.426;2023-04-04T05:16:31;103030.56;;;-2.18;100.00
63006;BME280;53704;52.532;6.426;2023-04-04T05:18:57;103034.88;;;-2.15;100.00
63006;BME280;53704;52.532;6.426;2023-04-04T05:21:23;103031.38;;;-2.16;100.00
63006;BME280;53704;52.532;6.426;2023-04-04T05:23:48;103046.34;;;-2.15;100.00
63006;BME280;53704;52.532;6.426;2023-04-04T05:26:13;103049.28;;;-2.33;100.00
63006;BME280;53704;52.532;6.426;2023-04-04T05:28:39;103053.66;;;-2.32;100.00
63006;BME280;53704;52.532;6.426;2023-04-04T05:31:05;103041.38;;;-1.85;100.00
63006;BME280;53704;52.532;6.426;2023-04-04T05:33:31;103035.28;;;-1.89;100.00
63006;BME280;53704;52.532;6.426;2023-04-04T05:35:58;103034.56;;;-1.97;100.00
63006;BME280;53704;52.532;6.426;2023-04-04T05:38:23;103037.56;;;-2.17;100.00
63006;BME280;53704;52.532;6.426;2023-04-04T05:40:49;103043.25;;;-2.40;100.00
63006;BME280;53704;52.532;6.426;2023-04-04T05:43:14;103044.56;;;-2.14;100.00
63006;BME280;53704;52.532;6.426;2023-04-04T05:45:40;103043.34;;;-1.96;100.00
63006;BME280;53704;52.532;6.426;2023-04-04T05:48:05;103042.69;;;-2.09;100.00
63006;BME280;53704;52.532;6.426;2023-04-04T05:50:30;103054.63;;;-1.88;100.00
63006;BME280;53704;52.532;6.426;2023-04-04T05:52:56;103051.22;;;-1.95;100.00
63006;BME280;53704;52.532;6.426;2023-04-04T05:55:22;103051.22;;;-1.93;100.00
63006;BME280;53704;52.532;6.426;2023-04-04T05:57:48;103047.44;;;-1.80;100.00
63006;BME280;53704;52.532;6.426;2023-04-04T06:00:14;103047.19;;;-1.68;100.00
63006;BME280;53704;52.532;6.426;2023-04-04T06:02:40;103045.13;;;-1.50;100.00
63006;BME280;53704;52.532;6.426;2023-04-04T06:05:07;103057.56;;;-1.57;100.00
63006;BME280;53704;52.532;6.426;2023-04-04T06:07:32;103051.97;;;-1.41;100.00
63006;BME280;53704;52.532;6.426;2023-04-04T06:09:58;103051.91;;;-1.38;100.00
63006;BME280;53704;52.532;6.426;2023-04-04T06:12:23;103055.16;;;-1.25;100.00
63006;BME280;53704;52.532;6.426;2023-04-04T06:14:48;103050.69;;;-1.23;100.00
63006;BME280;53704;52.532;6.426;2023-04-04T06:17:14;103057.72;;;-1.22;100.00
63006;BME280;53704;52.532;6.426;2023-04-04T06:19:40;103054.25;;;-1.24;100.00
63006;BME280;53704;52.532;6.426;2023-04-04T06:22:05;103059.25;;;-1.11;100.00
63006;BME280;53704;52.532;6.426;2023-04-04T06:24:30;103061.69;;;-1.01;100.00
63006;BME280;53704;52.532;6.426;2023-04-04T06:26:56;103064.13;;;-0.92;100.00
63006;BME280;53704;52.532;6.426;2023-04-04T06:29:21;103053.28;;;-0.80;100.00
63006;BME280;53704;52.532;6.426;2023-04-04T06:31:48;103059.47;;;-0.81;100.00
63006;BME280;53704;52.532;6.426;2023-04-04T06:34:13;103059.38;;;-0.78;100.00
63006;BME280;53704;52.532;6.426;2023-04-04T06:36:39;103058.50;;;-0.77;100.00
63006;BME280;53704;52.532;6.426;2023-04-04T06:39:04;103060.06;;;-0.68;100.00
63006;BME280;53704;52.532;6.426;2023-04-04T06:41:30;103060.94;;;-0.67;100.00
63006;BME280;53704;52.532;6.426;2023-04-04T06:43:57;103053.22;;;-0.78;100.00
63006;BME280;53704;52.532;6.426;2023-04-04T06:46:22;103059.38;;;-0.78;100.00
63006;BME280;53704;52.532;6.426;2023-04-04T06:48:49;103063.31;;;-0.57;100.00
63006;BME280;53704;52.532;6.426;2023-04-04T06:51:14;103065.91;;;-0.53;100.00
63006;BME280;53704;52.532;6.426;2023-04-04T06:53:40;103058.63;;;-0.45;100.00
63006;BME280;53704;52.532;6.426;2023-04-04T06:56:06;103066.00;;;-0.58;100.00
63006;BME280;53704;52.532;6.426;2023-04-04T06:58:32;103059.78;;;-0.57;100.00
63006;BME280;53704;52.532;6.426;2023-04-04T07:00:57;103058.88;;;-0.56;100.00
63006;BME280;53704;52.532;6.426;2023-04-04T07:03:24;103060.50;;;-0.49;100.00
63006;BME280;53704;52.532;6.426;2023-04-04T07:05:50;103054.66;;;-0.27;100.00
63006;BME280;53704;52.532;6.426;2023-04-04T07:08:16;103054.19;;;-0.09;100.00
63006;BME280;53704;52.532;6.426;2023-04-04T07:10:41;103052.31;;;-0.05;100.00
63006;BME280;53704;52.532;6.426;2023-04-04T07:13:07;103060.75;;;0.09;100.00
63006;BME280;53704;52.532;6.426;2023-04-04T07:15:32;103051.47;;;-0.06;100.00
63006;BME280;53704;52.532;6.426;2023-04-04T07:17:58;103058.59;;;-0.08;100.00
63006;BME280;53704;52.532;6.426;2023-04-04T07:20:24;103055.31;;;0.15;100.00
63006;BME280;53704;52.532;6.426;2023-04-04T07:22:51;103056.28;;;0.13;100.00
63006;BME280;53704;52.532;6.426;2023-04-04T07:25:16;103054.03;;;0.30;100.00
63006;BME280;53704;52.532;6.426;2023-04-04T07:27:44;103059.34;;;0.30;100.00
63006;BME280;53704;52.532;6.426;2023-04-04T07:30:10;103053.75;;;0.41;100.00
63006;BME280;53704;52.532;6.426;2023-04-04T07:32:36;103059.72;;;0.48;100.00
63006;BME280;53704;52.532;6.426;2023-04-04T07:35:05;103055.63;;;0.67;100.00
63006;BME280;53704;52.532;6.426;2023-04-04T07:37:31;103044.13;;;0.68;100.00
63006;BME280;53704;52.532;6.426;2023-04-04T07:39:57;103049.25;;;0.75;100.00
63006;BME280;53704;52.532;6.426;2023-04-04T07:42:23;103046.19;;;0.87;100.00
63006;BME280;53704;52.532;6.426;2023-04-04T07:44:49;103054.81;;;0.95;100.00
63006;BME280;53704;52.532;6.426;2023-04-04T07:47:16;103045.47;;;1.12;100.00
63006;BME280;53704;52.532;6.426;2023-04-04T07:49:41;103043.19;;;1.27;100.00
63006;BME280;53704;52.532;6.426;2023-04-04T07:52:07;103046.59;;;1.31;100.00
63006;BME280;53704;52.532;6.426;2023-04-04T07:54:33;103042.03;;;1.36;100.00
63006;BME280;53704;52.532;6.426;2023-04-04T07:56:58;103029.38;;;1.44;100.00
63006;BME280;53704;52.532;6.426;2023-04-04T07:59:24;103042.16;;;1.60;100.00
63006;BME280;53704;52.532;6.426;2023-04-04T08:01:49;103036.06;;;1.56;100.00
63006;BME280;53704;52.532;6.426;2023-04-04T08:04:15;103032.19;;;1.67;100.00
63006;BME280;53704;52.532;6.426;2023-04-04T08:06:40;103032.34;;;1.62;100.00
63006;BME280;53704;52.532;6.426;2023-04-04T08:09:06;103039.91;;;1.74;100.00
63006;BME280;53704;52.532;6.426;2023-04-04T08:11:32;103044.13;;;2.05;100.00
63006;BME280;53704;52.532;6.426;2023-04-04T08:13:57;103043.44;;;2.00;100.00
63006;BME280;53704;52.532;6.426;2023-04-04T08:16:22;103044.13;;;2.05;100.00
63006;BME280;53704;52.532;6.426;2023-04-04T08:18:48;103040.09;;;2.20;100.00
63006;BME280;53704;52.532;6.426;2023-04-04T08:21:13;103048.13;;;2.19;100.00
63006;BME280;53704;52.532;6.426;2023-04-04T08:23:39;103041.25;;;2.37;100.00
63006;BME280;53704;52.532;6.426;2023-04-04T08:26:04;103030.47;;;2.41;100.00
63006;BME280;53704;52.532;6.426;2023-04-04T08:28:30;103036.00;;;2.59;100.00
63006;BME280;53704;52.532;6.426;2023-04-04T08:30:55;103032.31;;;2.63;100.00
63006;BME280;53704;52.532;6.426;2023-04-04T08:33:21;103029.94;;;2.79;100.00
63006;BME280;53704;52.532;6.426;2023-04-04T08:35:49;103022.94;;;2.76;100.00
63006;BME280;53704;52.532;6.426;2023-04-04T08:38:16;103020.34;;;2.75;100.00
63006;BME280;53704;52.532;6.426;2023-04-04T08:40:45;103026.00;;;2.89;100.00
63006;BME280;53704;52.532;6.426;2023-04-04T08:43:13;103018.25;;;3.05;100.00
63006;BME280;53704;52.532;6.426;2023-04-04T08:45:44;103019.41;;;3.21;100.00
63006;BME280;53704;52.532;6.426;2023-04-04T08:48:10;103019.81;;;3.55;100.00
63006;BME280;53704;52.532;6.426;2023-04-04T08:50:39;103019.81;;;3.55;100.00
63006;BME280;53704;52.532;6.426;2023-04-04T08:53:09;103020.28;;;3.85;100.00
63006;BME280;53704;52.532;6.426;2023-04-04T08:55:35;103020.75;;;3.95;100.00
63006;BME280;53704;52.532;6.426;2023-04-04T08:58:00;103017.56;;;3.87;100.00
63006;BME280;53704;52.532;6.426;2023-04-04T09:00:26;103014.25;;;4.02;100.00
63006;BME280;53704;52.532;6.426;2023-04-04T09:03:04;103002.47;;;4.27;100.00
63006;BME280;53704;52.532;6.426;2023-04-04T09:05:30;103009.75;;;4.23;91.50
63006;BME280;53704;52.532;6.426;2023-04-04T09:07:57;102998.97;;;4.45;94.08
63006;BME280;53704;52.532;6.426;2023-04-04T09:10:23;103004.94;;;4.50;82.66
63006;BME280;53704;52.532;6.426;2023-04-04T09:12:50;103001.22;;;4.74;80.56
63006;BME280;53704;52.532;6.426;2023-04-04T09:15:15;103005.69;;;4.54;74.48
63006;BME280;53704;52.532;6.426;2023-04-04T09:17:41;103002.06;;;4.55;76.91
63006;BME280;53704;52.532;6.426;2023-04-04T09:20:35;103006.78;;;4.88;80.02
63006;BME280;53704;52.532;6.426;2023-04-04T09:23:04;103001.06;;;4.96;75.97
63006;BME280;53704;52.532;6.426;2023-04-04T09:25:31;103005.19;;;5.03;80.59
63006;BME280;53704;52.532;6.426;2023-04-04T09:27:56;103002.44;;;5.04;78.99
63006;BME280;53704;52.532;6.426;2023-04-04T09:30:22;103000.97;;;5.16;77.70
63006;BME280;53704;52.532;6.426;2023-04-04T09:32:48;103002.66;;;5.36;76.57
63006;BME280;53704;52.532;6.426;2023-04-04T09:35:14;103007.47;;;5.47;74.16
63006;BME280;53704;52.532;6.426;2023-04-04T09:37:41;103012.63;;;5.50;77.19
63006;BME280;53704;52.532;6.426;2023-04-04T09:40:09;103002.13;;;5.82;79.53
63006;BME280;53704;52.532;6.426;2023-04-04T09:42:35;103011.25;;;5.78;74.14
63006;BME280;53704;52.532;6.426;2023-04-04T09:45:01;103006.19;;;5.54;70.39
63006;BME280;53704;52.532;6.426;2023-04-04T09:47:29;103007.47;;;5.82;73.98
63006;BME280;53704;52.532;6.426;2023-04-04T09:50:02;103001.31;;;6.15;75.20
63006;BME280;53704;52.532;6.426;2023-04-04T09:52:31;102998.03;;;6.43;76.18
63006;BME280;53704;52.532;6.426;2023-04-04T09:55:01;102993.66;;;6.58;77.34
63006;BME280;53704;52.532;6.426;2023-04-04T09:57:36;102990.81;;;6.77;75.82
63006;BME280;53704;52.532;6.426;2023-04-04T10:00:04;102984.97;;;6.70;74.81
63006;BME280;53704;52.532;6.426;2023-04-04T10:02:32;102986.56;;;6.41;69.67
63006;BME280;53704;52.532;6.426;2023-04-04T10:04:59;102991.59;;;6.79;73.20
63006;BME280;53704;52.532;6.426;2023-04-04T10:07:27;102990.34;;;6.53;67.62
63006;BME280;53704;52.532;6.426;2023-04-04T10:09:53;102984.56;;;6.45;66.32
63006;BME280;53704;52.532;6.426;2023-04-04T10:12:26;102982.97;;;6.90;69.02
63006;BME280;53704;52.532;6.426;2023-04-04T10:14:58;102988.16;;;6.77;66.76
63006;BME280;53704;52.532;6.426;2023-04-04T10:17:37;102990.00;;;6.43;64.57
63006;BME280;53704;52.532;6.426;2023-04-04T10:20:06;102985.31;;;6.80;66.26
63006;BME280;53704;52.532;6.426;2023-04-04T10:22:34;102982.69;;;6.95;66.11
63006;BME280;53704;52.532;6.426;2023-04-04T10:25:00;102994.16;;;7.13;67.94
63006;BME280;53704;52.532;6.426;2023-04-04T10:27:26;102981.41;;;6.86;64.00
63006;BME280;53704;52.532;6.426;2023-04-04T10:29:52;102981.47;;;6.84;64.47
63006;BME280;53704;52.532;6.426;2023-04-04T10:35:43;102984.09;;;7.48;65.71
63006;BME280;53704;52.532;6.426;2023-04-04T10:38:13;102980.53;;;7.48;65.57
63006;BME280;53704;52.532;6.426;2023-04-04T10:40:41;102982.75;;;7.55;65.80
63006;BME280;53704;52.532;6.426;2023-04-04T10:43:10;102980.66;;;7.30;62.13
63006;BME280;53704;52.532;6.426;2023-04-04T10:45:39;102981.88;;;7.40;61.72
63006;BME280;53704;52.532;6.426;2023-04-04T10:48:07;102971.00;;;7.58;62.73
63006;BME280;53704;52.532;6.426;2023-04-04T10:50:34;102964.72;;;7.73;64.17
63006;BME280;53704;52.532;6.426;2023-04-04T10:53:03;102961.97;;;8.04;60.12
63006;BME280;53704;52.532;6.426;2023-04-04T10:55:31;102963.03;;;8.01;59.18
63006;BME280;53704;52.532;6.426;2023-04-04T10:58:00;102947.41;;;8.65;61.25
63006;BME280;53704;52.532;6.426;2023-04-04T11:00:26;102950.25;;;8.77;60.49
63006;BME280;53704;52.532;6.426;2023-04-04T11:05:31;102950.09;;;8.37;62.50
63006;BME280;53704;52.532;6.426;2023-04-04T11:08:01;102956.44;;;8.50;61.80
63006;BME280;53704;52.532;6.426;2023-04-04T11:10:34;102956.13;;;8.40;59.14
63006;BME280;53704;52.532;6.426;2023-04-04T11:13:16;102946.50;;;8.79;57.81
63006;BME280;53704;52.532;6.426;2023-04-04T11:21:08;102931.47;;;9.17;56.98
63006;BME280;53704;52.532;6.426;2023-04-04T11:28:59;102941.81;;;9.89;58.47
63006;BME280;53704;52.532;6.426;2023-04-04T11:31:26;102935.25;;;10.06;56.91
63006;BME280;53704;52.532;6.426;2023-04-04T11:34:03;102932.53;;;9.01;55.68
63006;BME280;53704;52.532;6.426;2023-04-04T11:44:18;102919.13;;;10.80;56.53
63006;BME280;53704;52.532;6.426;2023-04-04T11:46:44;102913.38;;;10.23;53.63
63006;BME280;53704;52.532;6.426;2023-04-04T11:49:13;102918.88;;;10.22;50.82
63006;BME280;53704;52.532;6.426;2023-04-04T11:51:39;102916.28;;;10.33;52.31
63006;BME280;53704;52.532;6.426;2023-04-04T11:54:15;102909.53;;;9.76;50.83
63006;BME280;53704;52.532;6.426;2023-04-04T11:56:42;102908.75;;;9.48;53.26
63006;BME280;53704;52.532;6.426;2023-04-04T11:59:10;102898.88;;;10.00;51.77
63006;BME280;53704;52.532;6.426;2023-04-04T12:01:36;102895.78;;;10.30;49.04
63006;BME280;53704;52.532;6.426;2023-04-04T12:04:03;102889.47;;;10.19;53.16
63006;BME280;53704;52.532;6.426;2023-04-04T12:06:29;102885.34;;;11.11;52.01
63006;BME280;53704;52.532;6.426;2023-04-04T12:08:57;102881.88;;;10.49;52.49
63006;BME280;53704;52.532;6.426;2023-04-04T12:11:23;102883.00;;;11.31;50.31
63006;BME280;53704;52.532;6.426;2023-04-04T12:13:49;102880.44;;;11.05;50.11
63006;BME280;53704;52.532;6.426;2023-04-04T12:16:18;102881.16;;;10.72;49.54
63006;BME280;53704;52.532;6.426;2023-04-04T12:18:44;102876.81;;;11.17;50.36
63006;BME280;53704;52.532;6.426;2023-04-04T12:21:10;102873.59;;;9.64;44.60
63006;BME280;53704;52.532;6.426;2023-04-04T12:23:36;102868.19;;;10.03;45.95
63006;BME280;53704;52.532;6.426;2023-04-04T12:26:02;102870.75;;;10.54;48.12
63006;BME280;53704;52.532;6.426;2023-04-04T12:28:32;102870.03;;;10.76;44.58
63006;BME280;53704;52.532;6.426;2023-04-04T12:31:03;102866.06;;;10.32;45.08
63006;BME280;53704;52.532;6.426;2023-04-04T12:33:34;102868.47;;;11.20;45.05
63006;BME280;53704;52.532;6.426;2023-04-04T12:36:04;102866.00;;;11.53;49.36
63006;BME280;53704;52.532;6.426;2023-04-04T12:38:29;102857.00;;;11.41;45.80
63006;BME280;53704;52.532;6.426;2023-04-04T12:40:55;102854.50;;;11.15;44.12
63006;BME280;53704;52.532;6.426;2023-04-04T12:43:30;102845.75;;;11.47;45.09
63006;BME280;53704;52.532;6.426;2023-04-04T12:45:57;102841.88;;;11.97;42.88
63006;BME280;53704;52.532;6.426;2023-04-04T12:48:27;102848.19;;;11.39;45.84
63006;BME280;53704;52.532;6.426;2023-04-04T12:50:57;102832.69;;;12.43;44.49
63006;BME280;53704;52.532;6.426;2023-04-04T12:53:25;102836.72;;;12.60;44.24
63006;BME280;53704;52.532;6.426;2023-04-04T12:55:53;102831.06;;;12.63;43.98
63006;BME280;53704;52.532;6.426;2023-04-04T12:58:20;102835.06;;;12.36;45.49
63006;BME280;53704;52.532;6.426;2023-04-04T13:00:49;102830.88;;;11.30;42.02
63006;BME280;53704;52.532;6.426;2023-04-04T13:03:15;102818.53;;;10.92;44.84
63006;BME280;53704;52.532;6.426;2023-04-04T13:05:42;102824.59;;;11.07;46.42
63006;BME280;53704;52.532;6.426;2023-04-04T13:08:09;102821.00;;;12.21;41.91
63006;BME280;53704;52.532;6.426;2023-04-04T13:10:57;102813.63;;;11.89;39.90
63006;BME280;53704;52.532;6.426;2023-04-04T13:13:40;102810.94;;;11.67;43.60